Time;durP1;ratioP1;P1;durP2;ratioP2;P2;SDS_P1;SDS_P2;PMS_P1;PMS_P2;Temp;Humidity;BMP_temperature;BMP_pressure;BME280_temperature;BME280_humidity;BME280_pressure;Samples;Min_cycle;Max_cycle;Signal;HPM_P1;HPM_P2
2021/06/22 04:17:32;;;;;;;0.30;0.30;;;18.30;99.90;;;;;;4949934;23;20727;-79
2021/06/22 04:20:00;;;;;;;0.30;0.30;;;18.40;99.90;;;;;;4918399;29;20234;-80
2021/06/22 04:22:28;;;;;;;0.30;0.30;;;18.40;99.90;;;;;;4918682;29;20261;-80
2021/06/22 04:24:56;;;;;;;0.30;0.30;;;19.00;99.90;;;;;;4918961;29;20254;-79
2021/06/22 04:27:24;;;;;;;0.30;0.30;;;18.10;99.90;;;;;;4941800;23;20868;-80
2021/06/22 04:29:52;;;;;;;0.30;0.30;;;17.90;99.90;;;;;;4918889;29;20281;-82
2021/06/22 04:32:20;;;;;;;0.30;0.30;;;;;;;;;;4919307;29;20275;-81
2021/06/22 04:34:50;;;;;;;0.38;0.38;;;17.60;99.90;;;;;;4919166;29;20692;-83
2021/06/22 04:37:17;;;;;;;0.40;0.40;;;17.60;99.90;;;;;;4919494;29;20202;-79
2021/06/22 04:39:45;;;;;;;0.40;0.40;;;17.40;99.90;;;;;;4919596;29;20247;-81
2021/06/22 04:42:13;;;;;;;0.30;0.30;;;17.30;99.90;;;;;;4919687;29;20550;-81
2021/06/22 04:44:41;;;;;;;0.30;0.30;;;17.40;99.90;;;;;;4920213;29;20611;-82
2021/06/22 04:47:09;;;;;;;0.30;0.30;;;17.50;99.90;;;;;;4920641;29;20206;-81
2021/06/22 04:49:37;;;;;;;0.43;0.43;;;17.30;99.90;;;;;;4920933;29;20223;-81
2021/06/22 04:52:09;;;;;;;0.30;0.30;;;17.30;99.90;;;;;;4920380;29;20668;-81
2021/06/22 04:54:37;;;;;;;0.30;0.30;;;17.30;99.90;;;;;;4919557;29;20210;-81
2021/06/22 04:57:06;;;;;;;0.30;0.30;;;17.30;99.90;;;;;;4919113;29;20207;-80
2021/06/22 04:59:34;;;;;;;0.40;0.40;;;17.20;99.90;;;;;;4919853;29;20231;-80
2021/06/22 05:02:19;;;;;;;0.40;0.40;;;17.20;99.90;;;;;;4920168;29;20269;-83
2021/06/22 05:04:48;;;;;;;0.40;0.40;;;17.20;99.90;;;;;;4919874;29;20258;-80
2021/06/22 05:07:17;;;;;;;0.40;0.40;;;17.10;99.90;;;;;;4904185;29;20206;-79
2021/06/22 05:09:45;;;;;;;0.40;0.40;;;17.10;99.90;;;;;;4898764;29;20243;-78
2021/06/22 05:12:13;;;;;;;0.30;0.30;;;17.10;99.90;;;;;;4900051;29;20207;-81
2021/06/22 05:14:41;;;;;;;0.30;0.30;;;17.20;99.90;;;;;;4900058;29;20226;-79
2021/06/22 05:17:09;;;;;;;0.30;0.30;;;17.30;99.90;;;;;;4897317;29;20616;-79
2021/06/22 05:19:37;;;;;;;0.30;0.30;;;17.20;99.90;;;;;;4897736;29;20260;-79
2021/06/22 05:22:05;;;;;;;0.30;0.30;;;17.20;99.90;;;;;;4897839;29;20203;-80
2021/06/22 05:24:34;;;;;;;0.30;0.30;;;17.10;99.90;;;;;;4897238;29;20258;-79
2021/06/22 05:27:03;;;;;;;0.40;0.40;;;17.10;99.90;;;;;;4896486;29;20207;-80
2021/06/22 05:29:31;;;;;;;0.30;0.30;;;16.90;99.90;;;;;;4896273;29;20282;-80
2021/06/22 05:31:59;;;;;;;0.40;0.40;;;17.00;99.90;;;;;;4895785;29;20203;-79
2021/06/22 05:34:27;;;;;;;0.40;0.40;;;17.00;99.90;;;;;;4897107;29;20223;-80
2021/06/22 05:36:55;;;;;;;0.40;0.40;;;16.90;99.90;;;;;;4897073;29;20711;-79
2021/06/22 05:39:23;;;;;;;0.30;0.30;;;16.90;99.90;;;;;;4897451;29;20227;-80
2021/06/22 05:41:52;;;;;;;0.40;0.40;;;17.00;99.90;;;;;;4897655;29;20396;-80
2021/06/22 05:44:20;;;;;;;0.40;0.40;;;17.00;99.90;;;;;;4897496;29;20270;-79
2021/06/22 05:46:48;;;;;;;0.40;0.40;;;16.90;99.90;;;;;;4897036;29;20744;-80
2021/06/22 05:49:16;;;;;;;0.40;0.40;;;16.80;99.90;;;;;;4897296;29;20306;-81
2021/06/22 05:51:45;;;;;;;0.50;0.50;;;16.80;99.90;;;;;;4897211;29;20879;-79
2021/06/22 05:54:13;;;;;;;0.40;0.40;;;16.80;99.90;;;;;;4897504;29;20208;-81
2021/06/22 05:56:41;;;;;;;0.50;0.50;;;16.90;99.90;;;;;;4897818;29;20215;-79
2021/06/22 05:59:11;;;;;;;0.40;0.40;;;16.80;99.90;;;;;;4900095;29;20234;-79
2021/06/22 12:00:40;;;;;;;0.30;0.30;;;19.10;99.90;;;;;;5765469;23;20290;-78
2021/06/22 12:03:08;;;;;;;0.30;0.30;;;19.10;99.90;;;;;;4921158;29;20206;-77
2021/06/22 12:05:38;;;;;;;0.30;0.30;;;19.00;99.90;;;;;;4923342;29;20210;-77
2021/06/22 12:08:07;;;;;;;0.30;0.30;;;18.90;99.90;;;;;;4923313;29;20210;-78
2021/06/22 12:10:47;;;;;;;0.30;0.30;;;18.80;99.90;;;;;;4923313;29;20227;-78
2021/06/22 12:13:29;;;;;;;0.30;0.30;;;18.80;99.90;;;;;;4922711;29;20266;-78
2021/06/22 12:15:59;;;;;;;0.30;0.30;;;18.70;99.90;;;;;;4942625;23;20234;-80
2021/06/22 12:18:33;;;;;;;0.40;0.40;;;18.60;99.90;;;;;;4920403;29;20202;-80
2021/06/22 12:21:03;;;;;;;0.30;0.30;;;18.60;99.90;;;;;;4920892;29;20195;-80
2021/06/22 12:23:31;;;;;;;0.30;0.30;;;18.60;99.90;;;;;;4920384;29;20262;-78
2021/06/22 12:25:59;;;;;;;0.40;0.40;;;18.60;99.90;;;;;;4919833;29;20227;-80
2021/06/22 12:28:32;;;;;;;0.40;0.40;;;18.80;99.90;;;;;;4920170;29;20202;-80
2021/06/22 12:31:03;;;;;;;0.30;0.30;;;18.80;99.90;;;;;;4920577;29;20203;-80
2021/06/22 12:33:37;;;;;;;0.40;0.40;;;18.90;99.90;;;;;;4920426;29;20203;-80
2021/06/22 12:36:07;;;;;;;0.30;0.30;;;19.00;99.90;;;;;;4919523;29;20318;-80
2021/06/22 12:38:38;;;;;;;0.30;0.30;;;19.10;99.90;;;;;;4920147;29;20203;-79
2021/06/22 12:41:08;;;;;;;0.30;0.30;;;19.00;99.90;;;;;;4919811;29;20210;-80
2021/06/22 12:43:48;;;;;;;0.30;0.30;;;19.00;99.90;;;;;;4921263;29;20206;-81
2021/06/22 12:46:19;;;;;;;0.40;0.40;;;19.20;99.90;;;;;;4920094;29;20226;-80
2021/06/22 12:48:49;;;;;;;0.30;0.30;;;19.30;99.90;;;;;;4920449;29;20206;-79
2021/06/22 12:51:18;;;;;;;0.30;0.30;;;19.60;99.90;;;;;;4919378;29;20647;-80
2021/06/22 12:53:49;;;;;;;0.30;0.30;;;19.90;99.90;;;;;;4920389;29;20210;-78
2021/06/22 12:56:19;;;;;;;0.30;0.30;;;20.30;99.90;;;;;;4919623;29;20717;-79
2021/06/22 12:58:49;;;;;;;0.20;0.20;;;20.50;99.90;;;;;;4921227;29;20568;-79
2021/06/22 13:01:30;;;;;;;0.30;0.30;;;20.40;99.90;;;;;;4921804;29;20206;-80
2021/06/22 13:03:58;;;;;;;0.30;0.30;;;20.30;99.90;;;;;;4920965;29;20676;-78
2021/06/22 13:06:28;;;;;;;0.30;0.30;;;20.40;99.90;;;;;;4921018;29;20230;-80
2021/06/22 13:08:58;;;;;;;0.30;0.30;;;20.10;99.90;;;;;;4921390;29;20206;-78
2021/06/22 13:11:28;;;;;;;0.30;0.30;;;19.90;99.90;;;;;;4923563;29;20237;-79
2021/06/22 13:14:14;;;;;;;0.30;0.30;;;19.80;99.90;;;;;;4923903;29;20266;-79
2021/06/22 13:16:45;;;;;;;0.30;0.30;;;19.90;99.90;;;;;;4922556;29;20286;-79
2021/06/22 13:19:17;;;;;;;0.30;0.30;;;19.70;99.90;;;;;;4923154;29;20239;-80
2021/06/22 13:21:48;;;;;;;0.20;0.20;;;19.90;99.90;;;;;;4922211;29;20210;-80
2021/06/22 13:24:40;;;;;;;0.30;0.30;;;19.80;99.90;;;;;;4921740;29;20212;-80
2021/06/22 13:27:10;;;;;;;0.30;0.30;;;19.80;99.90;;;;;;4922096;29;20671;-80
2021/06/22 13:29:59;;;;;;;0.30;0.30;;;19.50;99.90;;;;;;4922057;29;20210;-79
2021/06/22 13:32:37;;;;;;;0.32;0.32;;;19.60;99.90;;;;;;4921893;29;20691;-80
2021/06/22 13:35:09;;;;;;;0.30;0.30;;;19.50;99.90;;;;;;4921218;29;20230;-79
2021/06/22 13:37:54;;;;;;;0.30;0.30;;;19.60;99.90;;;;;;4921991;29;20250;-80
2021/06/22 13:40:22;;;;;;;0.30;0.30;;;19.80;99.90;;;;;;4922105;29;20198;-78
2021/06/22 13:43:12;;;;;;;0.40;0.40;;;20.20;99.90;;;;;;4922196;29;20234;-80
2021/06/22 13:45:46;;;;;;;0.20;0.20;;;20.30;99.90;;;;;;4921488;29;20281;-80
2021/06/22 13:48:23;;;;;;;0.28;0.28;;;20.60;99.90;;;;;;4921273;29;20206;-80
2021/06/22 13:50:52;;;;;;;0.20;0.20;;;20.60;99.90;;;;;;4921900;29;20206;-79
2021/06/22 13:53:25;;;;;;;0.20;0.20;;;20.60;99.90;;;;;;4920462;29;20278;-81
2021/06/22 13:55:54;;;;;;;0.20;0.20;;;20.50;99.90;;;;;;4920591;29;20609;-80
2021/06/22 13:58:23;;;;;;;0.28;0.28;;;20.50;99.90;;;;;;4920818;29;20852;-81
2021/06/22 14:00:53;;;;;;;0.20;0.20;;;20.50;99.90;;;;;;4919763;29;20211;-76
2021/06/22 14:03:23;;;;;;;0.20;0.20;;;20.40;99.90;;;;;;4915347;29;20214;-73
2021/06/22 14:05:56;;;;;;;0.20;0.20;;;20.30;99.90;;;;;;4915374;29;20222;-74
2021/06/22 14:08:24;;;;;;;0.30;0.30;;;20.10;99.90;;;;;;4915650;29;20211;-73
2021/06/22 14:10:54;;;;;;;0.30;0.30;;;20.10;99.90;;;;;;4915833;29;20194;-72
2021/06/22 14:13:27;;;;;;;0.30;0.30;;;20.10;99.90;;;;;;4915467;29;20199;-72
2021/06/22 14:15:55;;;;;;;0.30;0.30;;;20.10;99.90;;;;;;4915312;29;20655;-72
2021/06/22 14:18:25;;;;;;;0.30;0.30;;;19.90;99.90;;;;;;4915150;29;20238;-72
2021/06/22 14:20:54;;;;;;;0.20;0.20;;;19.80;99.90;;;;;;4915377;29;20739;-72
2021/06/22 14:23:22;;;;;;;0.20;0.20;;;19.80;99.90;;;;;;4915282;29;20736;-72
2021/06/22 14:25:51;;;;;;;0.30;0.30;;;19.80;99.90;;;;;;4915429;29;20266;-72
2021/06/22 14:28:22;;;;;;;0.30;0.30;;;19.90;99.90;;;;;;4915707;29;20207;-72
2021/06/22 14:30:53;;;;;;;0.30;0.30;;;19.90;99.90;;;;;;4917358;29;20361;-72
2021/06/22 14:33:21;;;;;;;0.30;0.30;;;19.90;99.90;;;;;;4920623;29;20288;-72
2021/06/22 14:35:51;;;;;;;0.30;0.30;;;20.10;99.90;;;;;;4927766;29;20218;-72
2021/06/22 14:38:19;;;;;;;0.30;0.30;;;20.10;99.90;;;;;;4922265;29;20245;-74
2021/06/22 14:40:47;;;;;;;0.30;0.30;;;20.20;99.90;;;;;;4923553;29;20198;-72
2021/06/22 14:43:15;;;;;;;0.30;0.30;;;21.40;99.90;;;;;;4924653;29;20573;-72
2021/06/22 14:45:43;;;;;;;0.30;0.30;;;20.40;99.90;;;;;;4923168;29;20231;-72
2021/06/22 14:48:12;;;;;;;0.30;0.30;;;20.10;99.90;;;;;;4924038;29;20207;-72
2021/06/22 14:50:40;;;;;;;0.20;0.20;;;20.10;99.90;;;;;;4924026;29;20206;-72
2021/06/22 14:53:11;;;;;;;0.28;0.28;;;20.00;99.90;;;;;;4921512;29;20293;-72
2021/06/22 14:55:41;;;;;;;0.30;0.30;;;19.80;99.90;;;;;;4923633;29;20222;-71
2021/06/22 14:58:11;;;;;;;0.30;0.30;;;19.80;99.90;;;;;;4923402;29;20218;-71
2021/06/22 15:00:56;;;;;;;0.20;0.20;;;19.90;99.90;;;;;;4922911;29;20591;-72
2021/06/22 15:03:25;;;;;;;0.30;0.30;;;19.90;99.90;;;;;;4920473;29;20290;-71
2021/06/22 15:05:53;;;;;;;0.30;0.30;;;20.00;99.90;;;;;;4916937;29;20219;-72
2021/06/22 15:08:23;;;;;;;0.30;0.30;;;20.00;99.90;;;;;;4918174;29;20290;-72
2021/06/22 15:10:51;;;;;;;0.40;0.40;;;20.00;99.90;;;;;;4918098;29;20720;-71
2021/06/22 15:13:19;;;;;;;0.30;0.30;;;19.90;99.90;;;;;;4918396;29;20207;-72
2021/06/22 15:15:47;;;;;;;0.25;0.25;;;19.90;99.90;;;;;;4917760;29;20282;-72
2021/06/22 15:18:15;;;;;;;0.30;0.30;;;19.90;99.90;;;;;;4918073;29;20229;-72
2021/06/22 15:20:43;;;;;;;0.40;0.40;;;20.00;99.90;;;;;;4918111;29;20218;-72
2021/06/22 15:23:12;;;;;;;0.30;0.30;;;19.90;99.90;;;;;;4917774;29;20199;-72
2021/06/22 15:25:44;;;;;;;0.30;0.30;;;19.80;99.90;;;;;;4917647;29;20231;-72
2021/06/22 15:28:18;;;;;;;0.30;0.30;;;19.60;99.90;;;;;;4916075;29;20191;-72
2021/06/22 15:30:46;;;;;;;0.40;0.40;;;19.70;99.90;;;;;;4917865;29;20207;-72
2021/06/22 15:33:13;;;;;;;0.30;0.30;;;19.70;99.90;;;;;;4917707;29;20623;-72
2021/06/22 15:35:41;;;;;;;0.30;0.30;;;19.80;99.90;;;;;;4920081;29;20590;-72
2021/06/22 15:38:09;;;;;;;0.40;0.40;;;19.90;99.90;;;;;;4924464;29;20778;-72
2021/06/22 15:40:37;;;;;;;0.40;0.40;;;20.00;99.90;;;;;;4926222;29;20203;-72
2021/06/22 15:43:07;;;;;;;0.30;0.30;;;19.80;99.90;;;;;;4927661;29;20206;-71
2021/06/22 15:45:36;;;;;;;0.30;0.30;;;19.90;99.90;;;;;;4926815;29;20755;-72
2021/06/22 15:48:05;;;;;;;0.30;0.30;;;19.80;99.90;;;;;;4926982;29;20191;-80
2021/06/22 15:50:38;;;;;;;0.40;0.40;;;19.80;99.90;;;;;;4938234;29;20265;-80
2021/06/22 15:53:06;;;;;;;0.20;0.20;;;20.00;99.90;;;;;;4937304;29;20195;-79
2021/06/22 15:55:34;;;;;;;0.40;0.40;;;20.10;99.90;;;;;;4944978;29;20671;-80
2021/06/22 15:58:02;;;;;;;0.30;0.30;;;20.10;99.90;;;;;;4931085;29;20226;-80
2021/06/22 16:00:32;;;;;;;0.20;0.20;;;20.20;99.90;;;;;;4944348;29;20206;-80
2021/06/22 16:03:01;;;;;;;0.30;0.30;;;20.30;99.90;;;;;;4939286;29;20211;-82
2021/06/22 16:05:32;;;;;;;0.30;0.30;;;20.40;99.90;;;;;;4925792;29;20223;-80
2021/06/22 16:08:01;;;;;;;0.30;0.30;;;20.50;99.90;;;;;;4936369;29;20199;-83
2021/06/22 16:10:29;;;;;;;0.30;0.30;;;20.60;99.90;;;;;;4924566;29;20415;-78
2021/06/22 16:12:57;;;;;;;0.30;0.30;;;20.70;99.90;;;;;;4925712;29;20207;-78
2021/06/22 16:15:25;;;;;;;0.30;0.30;;;20.80;99.90;;;;;;4939951;29;20657;-78
2021/06/22 16:17:55;;;;;;;0.30;0.30;;;20.90;99.90;;;;;;4941499;29;20265;-79
2021/06/22 16:20:25;;;;;;;0.30;0.30;;;20.90;99.90;;;;;;4942638;29;20265;-78
2021/06/22 16:22:53;;;;;;;0.20;0.20;;;21.10;99.90;;;;;;4943163;29;20198;-77
2021/06/22 16:25:24;;;;;;;0.30;0.30;;;21.30;99.90;;;;;;4940466;29;20292;-80
2021/06/22 16:27:52;;;;;;;0.20;0.20;;;21.30;99.90;;;;;;4939961;29;20196;-80
2021/06/22 16:30:21;;;;;;;0.20;0.20;;;21.30;99.90;;;;;;4940208;29;20522;-78
2021/06/22 16:32:49;;;;;;;0.20;0.20;;;21.40;99.90;;;;;;4944132;29;20214;-79
2021/06/22 16:35:18;;;;;;;0.20;0.20;;;21.20;99.90;;;;;;4942098;29;20707;-78
2021/06/22 16:37:48;;;;;;;0.28;0.28;;;21.20;99.90;;;;;;4940873;29;20222;-79
2021/06/22 16:40:16;;;;;;;0.20;0.20;;;21.10;99.90;;;;;;4937171;29;20675;-73
2021/06/22 16:42:45;;;;;;;0.20;0.20;;;21.10;99.90;;;;;;4936968;29;20662;-78
2021/06/22 16:45:15;;;;;;;0.30;0.30;;;20.80;99.90;;;;;;4935647;29;20290;-74
2021/06/22 16:47:44;;;;;;;0.30;0.30;;;20.80;99.90;;;;;;4921384;29;20255;-74
2021/06/22 16:50:13;;;;;;;0.30;0.30;;;20.80;99.90;;;;;;4927326;29;20199;-74
2021/06/22 16:52:42;;;;;;;0.30;0.30;;;20.50;99.90;;;;;;4926357;29;20879;-74
2021/06/22 16:55:18;;;;;;;0.20;0.20;;;20.50;99.90;;;;;;4925307;29;20309;-73
2021/06/22 16:57:48;;;;;;;0.20;0.20;;;20.50;99.90;;;;;;4925834;29;20281;-73
2021/06/22 17:00:17;;;;;;;0.30;0.30;;;20.60;99.90;;;;;;4922413;29;20259;-76
2021/06/22 17:02:45;;;;;;;0.30;0.30;;;20.60;99.90;;;;;;4925399;29;20280;-74
2021/06/22 17:05:14;;;;;;;0.20;0.20;;;20.60;99.90;;;;;;4934509;29;20226;-72
2021/06/22 17:07:43;;;;;;;0.30;0.30;;;20.70;99.90;;;;;;4925848;29;20203;-74
2021/06/22 17:10:15;;;;;;;0.20;0.20;;;20.70;99.90;;;;;;4919615;29;20241;-74
2021/06/22 17:12:44;;;;;;;0.28;0.28;;;20.70;99.90;;;;;;4926589;29;20229;-74
2021/06/22 17:15:12;;;;;;;0.30;0.30;;;20.60;99.90;;;;;;4925184;29;20226;-74
2021/06/22 17:17:41;;;;;;;0.30;0.30;;;20.50;99.90;;;;;;4924393;29;20226;-74
2021/06/22 17:20:13;;;;;;;0.20;0.20;;;20.60;99.90;;;;;;4921681;29;20255;-73
2021/06/22 17:22:40;;;;;;;0.30;0.30;;;20.50;99.90;;;;;;4922553;29;20211;-74
2021/06/22 17:25:12;;;;;;;0.30;0.30;;;20.50;99.90;;;;;;4923881;29;20223;-73
2021/06/22 17:27:40;;;;;;;0.20;0.20;;;20.50;99.90;;;;;;4925307;29;20199;-74
2021/06/22 17:30:10;;;;;;;0.30;0.30;;;20.60;99.90;;;;;;4926264;29;20261;-74
2021/06/22 17:32:38;;;;;;;0.30;0.30;;;20.50;99.90;;;;;;4932312;29;20788;-73
2021/06/22 17:35:09;;;;;;;0.30;0.30;;;20.50;99.90;;;;;;4934023;29;20222;-74
2021/06/22 17:37:38;;;;;;;0.30;0.30;;;20.50;99.90;;;;;;4934299;29;20222;-74
2021/06/22 17:40:08;;;;;;;0.28;0.28;;;20.40;99.90;;;;;;4934206;29;20214;-74
2021/06/22 17:42:38;;;;;;;0.20;0.20;;;20.30;99.90;;;;;;4934292;29;20210;-74
2021/06/22 17:45:07;;;;;;;0.20;0.20;;;20.40;99.90;;;;;;4933872;29;20230;-74
2021/06/22 17:47:36;;;;;;;0.30;0.30;;;20.40;99.90;;;;;;4934416;29;20206;-74
2021/06/22 17:50:05;;;;;;;0.20;0.20;;;20.50;99.90;;;;;;4935005;29;20265;-74
2021/06/22 17:52:33;;;;;;;0.30;0.30;;;20.50;99.90;;;;;;4934940;29;20202;-74
2021/06/22 17:55:03;;;;;;;0.30;0.30;;;20.60;99.90;;;;;;4934639;29;20785;-74
2021/06/22 17:57:33;;;;;;;0.20;0.20;;;20.60;99.90;;;;;;4934669;29;20230;-74
2021/06/22 18:00:05;;;;;;;0.30;0.30;;;20.60;99.90;;;;;;4934965;29;20206;-74
2021/06/22 18:02:33;;;;;;;0.20;0.20;;;20.40;99.90;;;;;;4934883;29;20206;-74
2021/06/22 18:05:01;;;;;;;0.20;0.20;;;20.40;99.90;;;;;;4936415;29;20317;-78
2021/06/22 18:07:29;;;;;;;0.30;0.30;;;20.50;99.90;;;;;;4938855;29;20265;-79
2021/06/22 18:09:57;;;;;;;0.32;0.32;;;20.50;99.90;;;;;;4938829;29;20202;-79
2021/06/22 18:12:26;;;;;;;0.30;0.30;;;20.60;99.90;;;;;;4913321;29;20199;-78
2021/06/22 18:14:54;;;;;;;0.30;0.30;;;20.70;99.90;;;;;;4915967;29;20269;-79
2021/06/22 18:17:25;;;;;;;0.30;0.30;;;20.70;99.90;;;;;;4916753;29;20217;-78
2021/06/22 18:19:53;;;;;;;0.20;0.20;;;20.50;99.90;;;;;;4916328;29;20217;-77
2021/06/22 18:22:21;;;;;;;0.20;0.20;;;20.60;99.90;;;;;;4915968;29;20202;-77
2021/06/22 18:24:50;;;;;;;0.20;0.20;;;20.60;99.90;;;;;;4915982;29;20251;-78
2021/06/22 18:27:18;;;;;;;0.20;0.20;;;20.60;99.90;;;;;;4915214;29;20203;-77
2021/06/22 18:29:46;;;;;;;0.20;0.20;;;20.60;99.90;;;;;;4915451;29;20202;-78
2021/06/22 18:32:15;;;;;;;0.30;0.30;;;20.70;99.90;;;;;;4915731;29;20669;-77
2021/06/22 18:34:46;;;;;;;0.20;0.20;;;20.70;99.90;;;;;;4915310;29;20580;-78
2021/06/22 18:37:14;;;;;;;0.20;0.20;;;20.80;99.90;;;;;;4908072;29;20203;-78
2021/06/22 18:39:42;;;;;;;0.20;0.20;;;20.60;99.90;;;;;;4915605;29;20233;-77
2021/06/22 18:42:11;;;;;;;0.30;0.30;;;20.50;99.90;;;;;;4919047;29;20227;-78
2021/06/22 18:44:39;;;;;;;0.20;0.20;;;20.30;99.90;;;;;;4918817;29;20233;-76
2021/06/22 18:47:07;;;;;;;0.20;0.20;;;20.40;99.90;;;;;;4921324;29;20207;-79
2021/06/22 18:49:36;;;;;;;0.20;0.20;;;20.30;99.90;;;;;;4921745;29;20664;-78
2021/06/22 18:52:06;;;;;;;0.40;0.40;;;20.40;99.90;;;;;;4920647;29;20203;-80
2021/06/22 18:54:35;;;;;;;0.30;0.30;;;20.20;99.90;;;;;;4921269;29;20265;-80
2021/06/22 18:57:03;;;;;;;0.30;0.30;;;20.30;99.90;;;;;;4911548;29;20290;-78
2021/06/22 18:59:31;;;;;;;0.30;0.30;;;20.30;99.90;;;;;;4919167;29;20274;-82
2021/06/22 19:01:59;;;;;;;0.30;0.30;;;20.30;99.90;;;;;;4918692;29;20278;-78
2021/06/22 19:04:27;;;;;;;0.40;0.40;;;20.30;99.90;;;;;;4918761;29;20234;-79
2021/06/22 19:06:55;;;;;;;0.20;0.20;;;20.40;99.90;;;;;;4918197;29;20210;-77
2021/06/22 19:09:24;;;;;;;0.20;0.20;;;20.20;99.90;;;;;;4920409;29;20258;-79
2021/06/22 19:11:52;;;;;;;0.30;0.30;;;20.30;99.90;;;;;;4919523;29;20214;-80
2021/06/22 19:14:25;;;;;;;0.30;0.30;;;20.20;99.90;;;;;;4919426;29;20206;-78
2021/06/22 19:16:53;;;;;;;0.30;0.30;;;20.20;99.90;;;;;;4919109;29;20210;-80
2021/06/22 19:19:22;;;;;;;0.30;0.30;;;20.20;99.90;;;;;;4919394;29;20281;-79
2021/06/22 19:21:50;;;;;;;0.30;0.30;;;20.20;99.90;;;;;;4919272;29;20206;-80
2021/06/22 19:24:20;;;;;;;0.20;0.20;;;20.40;99.90;;;;;;4918959;29;20206;-78
2021/06/22 19:26:49;;;;;;;0.30;0.30;;;20.20;99.90;;;;;;4918655;29;20203;-79
2021/06/22 19:29:17;;;;;;;0.20;0.20;;;20.20;99.90;;;;;;4918794;29;20732;-80
2021/06/22 19:31:46;;;;;;;0.20;0.20;;;20.20;99.90;;;;;;4918439;29;20239;-78
2021/06/22 19:34:14;;;;;;;0.20;0.20;;;20.10;99.90;;;;;;4926372;29;20247;-77
2021/06/22 19:36:49;;;;;;;0.30;0.30;;;20.20;99.90;;;;;;4936171;29;20212;-77
2021/06/22 19:39:18;;;;;;;0.40;0.40;;;20.20;99.90;;;;;;4933014;29;20235;-80
2021/06/22 19:41:46;;;;;;;0.30;0.30;;;20.20;99.90;;;;;;4932507;29;20235;-77
2021/06/22 19:44:15;;;;;;;0.30;0.30;;;20.20;99.90;;;;;;4928186;29;20262;-80
2021/06/22 19:46:44;;;;;;;0.20;0.20;;;20.30;99.90;;;;;;4918543;29;20210;-80
2021/06/22 19:49:12;;;;;;;0.30;0.30;;;20.30;99.90;;;;;;4918725;29;20202;-79
2021/06/22 19:51:40;;;;;;;0.30;0.30;;;20.30;99.90;;;;;;4916999;29;20672;-77
2021/06/22 19:54:08;;;;;;;0.22;0.22;;;20.30;99.90;;;;;;4917830;29;20213;-79
2021/06/22 19:56:37;;;;;;;0.30;0.30;;;20.20;99.90;;;;;;4918335;29;20206;-78
2021/06/22 19:59:05;;;;;;;0.20;0.20;;;20.30;99.90;;;;;;4918727;29;20258;-78
2021/06/22 20:01:34;;;;;;;0.20;0.20;;;20.30;99.90;;;;;;4918116;29;20625;-79
2021/06/22 20:04:04;;;;;;;0.20;0.20;;;20.20;99.90;;;;;;4918572;29;20219;-80
2021/06/22 20:06:32;;;;;;;0.20;0.20;;;20.30;99.90;;;;;;4918686;29;20238;-80
2021/06/22 20:09:00;;;;;;;0.20;0.20;;;20.30;99.90;;;;;;4918671;29;20207;-79
2021/06/22 20:11:28;;;;;;;0.20;0.20;;;20.40;99.90;;;;;;4918519;29;20195;-79
2021/06/22 20:13:56;;;;;;;0.22;0.22;;;20.30;99.90;;;;;;4917784;29;20921;-79
2021/06/22 20:16:24;;;;;;;0.20;0.20;;;20.40;99.90;;;;;;4917872;29;20731;-80
2021/06/22 20:18:54;;;;;;;0.30;0.30;;;20.40;99.90;;;;;;4918063;29;20206;-78
2021/06/22 20:21:21;;;;;;;0.20;0.20;;;20.40;99.90;;;;;;4918106;29;20206;-78
2021/06/22 20:23:50;;;;;;;0.30;0.30;;;20.40;99.90;;;;;;4917956;29;20254;-79
2021/06/22 20:26:17;;;;;;;0.20;0.20;;;20.40;99.90;;;;;;4917723;29;20262;-77
2021/06/22 20:28:46;;;;;;;0.20;0.20;;;20.50;99.90;;;;;;4918521;29;20213;-78
2021/06/22 20:31:14;;;;;;;0.25;0.25;;;20.60;99.90;;;;;;4916896;29;20653;-78
2021/06/22 20:33:42;;;;;;;0.20;0.20;;;20.60;99.90;;;;;;4916849;29;20675;-79
2021/06/22 20:36:11;;;;;;;0.28;0.28;;;20.70;99.90;;;;;;4918327;29;20222;-78
2021/06/22 20:38:40;;;;;;;0.22;0.22;;;20.70;99.90;;;;;;4918673;29;20620;-78
2021/06/22 20:41:08;;;;;;;0.20;0.20;;;20.70;99.90;;;;;;4917531;29;20282;-78
2021/06/22 20:43:36;;;;;;;0.20;0.20;;;20.60;99.90;;;;;;4917628;29;20218;-78
2021/06/22 20:46:04;;;;;;;0.28;0.28;;;20.80;99.90;;;;;;4916914;29;20230;-80
2021/06/22 20:48:32;;;;;;;0.30;0.30;;;20.40;99.90;;;;;;4916417;29;20209;-79
2021/06/22 20:51:00;;;;;;;0.20;0.20;;;20.60;99.90;;;;;;4916123;29;20198;-77
2021/06/22 20:53:29;;;;;;;0.30;0.30;;;20.70;99.90;;;;;;4916140;29;20207;-79
2021/06/22 20:55:57;;;;;;;0.20;0.20;;;20.60;99.90;;;;;;4916322;29;20639;-78
2021/06/22 20:58:25;;;;;;;0.20;0.20;;;20.60;99.90;;;;;;4916379;29;20250;-76
